createdAt,value
2022-08-09T11:35:12.331Z,50.911263
2022-08-09T11:36:11.659Z,50.911293
2022-08-09T11:37:18.036Z,50.911331
2022-08-09T11:38:12.634Z,50.911236
2022-08-09T11:39:11.661Z,50.911316
2022-08-09T11:40:11.621Z,50.910980
2022-08-09T11:41:13.053Z,50.910728
2022-08-09T11:42:14.687Z,50.910641
2022-08-09T11:43:11.595Z,50.910450
2022-08-09T11:44:11.583Z,50.910637
2022-08-09T11:45:11.577Z,50.910839
2022-08-09T11:46:11.594Z,50.910831
2022-08-09T11:47:14.453Z,50.910809
2022-08-09T11:48:17.501Z,50.910831
2022-08-09T11:49:16.842Z,50.910816
2022-08-09T11:50:55.103Z,50.910854
2022-08-09T11:52:49.558Z,50.910835
2022-08-09T11:52:57.033Z,50.910839
2022-08-09T11:53:57.901Z,50.910854
2022-08-09T11:54:13.807Z,50.910896
2022-08-09T11:55:11.514Z,50.910854
2022-08-09T11:56:11.521Z,50.910843
2022-08-09T11:57:12.506Z,50.910915
2022-08-09T11:58:11.500Z,50.910881
2022-08-09T11:59:11.494Z,50.910862
2022-08-09T12:00:16.200Z,50.910831
2022-08-09T12:01:15.590Z,50.910889
2022-08-09T12:02:17.560Z,50.910858
2022-08-09T12:03:56.005Z,50.910904
2022-08-09T12:04:23.541Z,50.910885
2022-08-09T12:05:17.226Z,50.910831
2022-08-09T12:06:12.455Z,50.910824
2022-08-09T12:07:11.461Z,50.910858
2022-08-09T12:08:12.487Z,50.910851
2022-08-09T12:09:17.521Z,50.910889
2022-08-09T12:10:14.134Z,50.910915
2022-08-09T12:11:12.847Z,50.910892
2022-08-09T12:12:13.073Z,50.910866
2022-08-09T12:14:08.320Z,50.910908
2022-08-09T12:14:36.480Z,50.910931
2022-08-09T12:15:12.413Z,50.910915
2022-08-09T12:16:30.778Z,50.910961
2022-08-09T12:17:33.845Z,50.910774
2022-08-09T12:18:12.439Z,50.910915
2022-08-09T12:19:12.208Z,50.910908
2022-08-09T12:20:11.382Z,50.910831
2022-08-09T12:21:26.643Z,50.910892
2022-08-09T12:22:12.382Z,50.910904
2022-08-09T12:23:11.365Z,50.910919
2022-08-09T12:24:11.353Z,50.910816
2022-08-09T12:25:11.361Z,50.910892
2022-08-09T12:26:11.346Z,50.910923
2022-08-09T12:29:13.812Z,50.910988
2022-08-09T12:29:14.711Z,50.911163
2022-08-09T12:29:33.043Z,50.911053
2022-08-09T12:30:36.132Z,50.910912
2022-08-09T12:31:59.406Z,50.910786
2022-08-09T12:32:12.321Z,50.910900
2022-08-09T12:33:11.309Z,50.911018
2022-08-09T12:34:11.309Z,50.911007
2022-08-09T12:35:13.265Z,50.910995
2022-08-09T12:36:27.622Z,50.910954
2022-08-09T12:37:23.777Z,50.910892
2022-08-09T12:38:12.268Z,50.910908
2022-08-09T12:39:11.304Z,50.910923
2022-08-09T12:40:11.263Z,50.910858
2022-08-09T12:41:11.250Z,50.910900
2022-08-09T12:42:11.256Z,50.910931
2022-08-09T12:43:12.251Z,50.910954
2022-08-09T12:44:12.778Z,50.910938
2022-08-09T12:45:34.956Z,50.910873
2022-08-09T12:46:12.266Z,50.910873
2022-08-09T12:47:11.218Z,50.910866
2022-08-09T12:48:30.883Z,50.910866
2022-08-09T12:49:12.198Z,50.910835
2022-08-09T12:50:11.191Z,50.910877
2022-08-09T12:51:11.194Z,50.910835
2022-08-09T12:52:11.193Z,50.910938
2022-08-09T12:53:19.228Z,50.911095
2022-08-09T12:54:12.176Z,50.911129
2022-08-09T12:56:14.779Z,50.911026
2022-08-09T12:56:44.003Z,50.910885
2022-08-09T12:57:12.205Z,50.910759
2022-08-09T12:58:24.275Z,50.910847
2022-08-09T12:59:12.150Z,50.910892
2022-08-09T13:00:11.167Z,50.910805
2022-08-09T13:01:11.177Z,50.910744
2022-08-09T13:02:11.152Z,50.910744
2022-08-09T13:03:24.396Z,50.910831
2022-08-09T13:04:36.730Z,50.910923
2022-08-09T13:05:12.162Z,50.910950
2022-08-09T13:06:14.925Z,50.910892
2022-08-09T13:07:12.115Z,50.910839
2022-08-09T13:08:11.093Z,50.910858
2022-08-09T13:09:11.095Z,50.910854
2022-08-09T13:10:11.078Z,50.910824
2022-08-09T13:11:22.668Z,50.910767
2022-08-09T13:12:12.084Z,50.910831
2022-08-09T13:13:11.507Z,50.910866
2022-08-09T13:14:41.636Z,50.910839
2022-08-09T13:15:12.072Z,50.910866
2022-08-09T13:16:11.050Z,50.910873
2022-08-09T13:17:11.066Z,50.910839
2022-08-09T13:18:17.320Z,50.910870
2022-08-09T13:19:11.046Z,50.910839
2022-08-09T13:20:17.424Z,50.910831
2022-08-09T13:22:35.957Z,50.910812
2022-08-09T13:22:37.022Z,50.910740
2022-08-09T13:24:42.009Z,50.910854
2022-08-09T13:24:42.535Z,50.910839
2022-08-09T13:25:14.240Z,50.910828
2022-08-09T13:26:11.208Z,50.910732
2022-08-09T13:27:11.012Z,50.910847
2022-08-09T13:28:10.987Z,50.910805
2022-08-09T13:29:13.131Z,50.910793
2022-08-09T13:30:50.129Z,50.910824
2022-08-09T13:32:16.285Z,50.910789
2022-08-09T13:32:17.629Z,50.910812
2022-08-09T13:33:17.146Z,50.910881
2022-08-09T13:34:11.966Z,50.910751
2022-08-09T13:35:11.537Z,50.910828
2022-08-09T13:36:38.979Z,50.910954
2022-08-09T13:37:12.082Z,50.911102
2022-08-09T13:38:32.871Z,50.911224
2022-08-09T13:41:17.676Z,50.911236
2022-08-09T13:41:46.297Z,50.911255
2022-08-09T13:41:54.353Z,50.910583
2022-08-09T13:42:12.895Z,50.910549
2022-08-09T13:43:15.421Z,50.910534
2022-08-09T13:44:13.700Z,50.910496
2022-08-09T13:45:12.509Z,50.910656
2022-08-09T13:47:16.012Z,50.910637
2022-08-09T13:47:27.027Z,50.910717
2022-08-09T13:48:12.021Z,50.910717
2022-08-09T13:49:18.453Z,50.910706
2022-08-09T13:50:12.866Z,50.910717
2022-08-09T13:51:10.887Z,50.910702
2022-08-09T13:52:10.892Z,50.910389
2022-08-09T13:53:11.879Z,50.910278
2022-08-09T13:54:13.412Z,50.910496
2022-08-09T13:55:13.617Z,50.910641
2022-08-09T13:56:11.920Z,50.910725
2022-08-09T13:57:35.002Z,50.910706
2022-08-09T13:58:12.023Z,50.910713
2022-08-09T13:59:10.847Z,50.910736
2022-08-09T14:00:10.839Z,50.910702
2022-08-09T14:01:55.610Z,50.910744
2022-08-09T14:02:11.893Z,50.910843
2022-08-09T14:04:01.479Z,50.910751
2022-08-09T14:04:12.026Z,50.910675
2022-08-09T14:05:10.880Z,50.910675
2022-08-09T14:06:14.823Z,50.910656
2022-08-09T14:07:10.830Z,50.910683
2022-08-09T14:08:10.812Z,50.910694
2022-08-09T14:09:10.799Z,50.910664
2022-08-09T14:10:17.259Z,50.910656
2022-08-09T14:11:16.065Z,50.910717
2022-08-09T14:12:15.841Z,50.910641
2022-08-09T14:13:12.168Z,50.910652
2022-08-09T14:14:25.021Z,50.910629
2022-08-09T14:15:19.612Z,50.910595
2022-08-09T14:16:11.768Z,50.910641
2022-08-09T14:17:12.597Z,50.910725
2022-08-09T14:18:19.572Z,50.910690
2022-08-09T14:19:11.754Z,50.910610
2022-08-09T14:20:10.736Z,50.910526
2022-08-09T14:21:10.736Z,50.910652
2022-08-09T14:22:10.751Z,50.910652
2022-08-09T14:23:10.722Z,50.910717
2022-08-09T14:24:18.652Z,50.910767
2022-08-09T14:25:11.718Z,50.910713
2022-08-09T14:26:10.724Z,50.910645
2022-08-09T14:27:19.811Z,50.910637
2022-08-09T14:28:11.717Z,50.910660
2022-08-09T14:30:18.712Z,50.910694
2022-08-09T14:30:37.025Z,50.910675
2022-08-09T14:31:11.689Z,50.910656
2022-08-09T14:32:13.187Z,50.910751
2022-08-09T14:33:11.749Z,50.910652
2022-08-09T14:34:10.672Z,50.910603
2022-08-09T14:35:10.669Z,50.910633
2022-08-09T14:36:12.134Z,50.910622
2022-08-09T14:37:11.697Z,50.910637
2022-08-09T14:38:10.650Z,50.910679
2022-08-09T14:39:10.743Z,50.910648
2022-08-09T14:40:10.721Z,50.910545
2022-08-09T14:41:34.771Z,50.910645
2022-08-09T14:42:11.652Z,50.910622
2022-08-09T14:43:10.629Z,50.910637
2022-08-09T14:44:11.628Z,50.910614
2022-08-09T14:46:39.445Z,50.910652
2022-08-09T14:47:00.748Z,50.910770
2022-08-09T14:47:27.413Z,50.910728
2022-08-09T14:48:11.616Z,50.910770
2022-08-09T14:49:10.796Z,50.910763
2022-08-09T14:50:11.036Z,50.910767
2022-08-09T14:51:10.585Z,50.910839
2022-08-09T14:52:10.582Z,50.910835
2022-08-09T14:53:11.252Z,50.910732
2022-08-09T14:54:10.563Z,50.910728
2022-08-09T14:55:10.562Z,50.910694
2022-08-09T14:56:10.572Z,50.910748
2022-08-09T14:57:10.551Z,50.910774
2022-08-09T14:58:10.574Z,50.910763
2022-08-09T14:59:14.457Z,50.910732
2022-08-09T15:00:10.532Z,50.910728
2022-08-09T15:01:10.568Z,50.910797
2022-08-09T15:02:10.523Z,50.910755
2022-08-09T15:03:10.788Z,50.910767
2022-08-09T15:04:10.508Z,50.910706
2022-08-09T15:05:10.520Z,50.910805
2022-08-09T15:06:10.494Z,50.910820
2022-08-09T15:07:10.491Z,50.910774
2022-08-09T15:08:10.655Z,50.910713
2022-08-09T15:09:10.490Z,50.910721
2022-08-09T15:10:14.381Z,50.910751
2022-08-09T15:11:11.473Z,50.910732
2022-08-09T15:12:11.656Z,50.910732
2022-08-09T15:13:10.465Z,50.910759
2022-08-09T15:14:13.488Z,50.910732
2022-08-09T15:15:10.462Z,50.910755
2022-08-09T15:16:10.437Z,50.910755
2022-08-09T15:17:11.299Z,50.910751
2022-08-09T15:18:13.960Z,50.910748
2022-08-09T15:19:16.156Z,50.910767
2022-08-09T15:20:11.794Z,50.910751
2022-08-09T15:21:58.348Z,50.910748
2022-08-09T15:22:11.398Z,50.910774
2022-08-09T15:23:55.927Z,50.910778
2022-08-09T15:24:17.601Z,50.910786
2022-08-09T15:25:10.394Z,50.910748
2022-08-09T15:26:19.298Z,50.910748
2022-08-09T15:27:11.398Z,50.910740
2022-08-09T15:28:27.341Z,50.910748
2022-08-09T15:29:11.371Z,50.910686
2022-08-09T15:30:56.076Z,50.910721
2022-08-09T15:31:17.491Z,50.910736
2022-08-09T15:32:28.940Z,50.910763
2022-08-09T15:33:11.362Z,50.910778
2022-08-09T15:34:32.270Z,50.910801
2022-08-09T15:35:18.238Z,50.910809
2022-08-09T15:36:11.336Z,50.910789
2022-08-09T15:37:10.391Z,50.910759
2022-08-09T15:38:12.022Z,50.910782
2022-08-09T15:39:10.345Z,50.910675
2022-08-09T15:40:11.677Z,50.910686
2022-08-09T15:41:10.302Z,50.910751
2022-08-09T15:42:10.287Z,50.910778
2022-08-09T15:43:13.486Z,50.910797
2022-08-09T15:44:10.277Z,50.910805
2022-08-09T15:45:10.266Z,50.910820
2022-08-09T15:46:28.595Z,50.910789
2022-08-09T15:47:14.488Z,50.910828
2022-08-09T15:48:28.423Z,50.910805
2022-08-09T15:49:22.842Z,50.910728
2022-08-09T15:50:11.233Z,50.910713
2022-08-09T15:51:30.008Z,50.910713
2022-08-09T15:52:11.762Z,50.910702
2022-08-09T15:53:18.792Z,50.910713
2022-08-09T15:54:31.370Z,50.910728
2022-08-09T15:55:11.205Z,50.910748
2022-08-09T15:56:21.649Z,50.910755
2022-08-09T15:57:11.173Z,50.910759
2022-08-09T15:58:26.917Z,50.910801
2022-08-09T15:59:11.161Z,50.910801
2022-08-09T16:00:13.835Z,50.910801
2022-08-09T16:01:10.200Z,50.910812
2022-08-09T16:02:13.159Z,50.910751
2022-08-09T16:03:10.178Z,50.910763
2022-08-09T16:04:13.541Z,50.910755
2022-08-09T16:05:10.115Z,50.910728
2022-08-09T16:06:16.177Z,50.910732
2022-08-09T16:07:11.168Z,50.910755
2022-08-09T16:08:10.102Z,50.910736
2022-08-09T16:09:11.083Z,50.910744
2022-08-09T16:10:17.026Z,50.910740
2022-08-09T16:11:11.067Z,50.910732
2022-08-09T16:12:11.597Z,50.910709
2022-08-09T16:13:20.939Z,50.910694
2022-08-09T16:14:11.042Z,50.910679
2022-08-09T16:16:04.363Z,50.910683
2022-08-09T16:16:17.393Z,50.910679
2022-08-09T16:17:11.010Z,50.910706
2022-08-09T16:18:10.196Z,50.910725
2022-08-09T16:19:09.991Z,50.910763
2022-08-09T16:20:10.041Z,50.910805
2022-08-09T16:21:09.976Z,50.910698
2022-08-09T16:22:15.788Z,50.910755
2022-08-09T16:23:11.215Z,50.910660
2022-08-09T16:24:20.140Z,50.910667
2022-08-09T16:25:10.943Z,50.910656
2022-08-09T16:26:19.990Z,50.910702
2022-08-09T16:27:10.931Z,50.910744
2022-08-09T16:28:11.873Z,50.910683
2022-08-09T16:29:11.588Z,50.910690
2022-08-09T16:30:14.935Z,50.910759
2022-08-09T16:31:16.140Z,50.910763
2022-08-09T16:32:33.565Z,50.910770
2022-08-09T16:33:10.902Z,50.910694
2022-08-09T16:34:09.858Z,50.910629
2022-08-09T16:35:11.253Z,50.910664
2022-08-09T16:36:14.503Z,50.910709
2022-08-09T16:37:11.837Z,50.910675
2022-08-09T16:38:09.842Z,50.910675
2022-08-09T16:39:09.850Z,50.910694
2022-08-09T16:40:09.953Z,50.910744
2022-08-09T16:41:14.310Z,50.910740
2022-08-09T16:42:10.804Z,50.910736
2022-08-09T16:43:09.796Z,50.910801
2022-08-09T16:44:09.769Z,50.910759
2022-08-09T16:45:09.758Z,50.910740
2022-08-09T16:46:10.883Z,50.910793
2022-08-09T16:48:38.343Z,50.910736
2022-08-09T16:48:50.650Z,50.910706
2022-08-09T16:49:18.670Z,50.910755
2022-08-09T16:50:29.870Z,50.910774
2022-08-09T16:51:14.108Z,50.910789
2022-08-09T16:52:10.028Z,50.910736
2022-08-09T16:53:09.698Z,50.910732
2022-08-09T16:54:27.738Z,50.910709
2022-08-09T16:55:12.066Z,50.910698
2022-08-09T16:56:10.743Z,50.910679
2022-08-09T16:57:10.739Z,50.910744
2022-08-09T16:58:11.339Z,50.910717
2022-08-09T16:59:10.637Z,50.910717
2022-08-09T17:00:09.624Z,50.910652
2022-08-09T17:01:09.660Z,50.910732
2022-08-09T17:02:09.641Z,50.910694
2022-08-09T17:03:20.968Z,50.910683
2022-08-09T17:04:10.592Z,50.910728
2022-08-09T17:05:10.585Z,50.910706
2022-08-09T17:06:28.942Z,50.910744
2022-08-09T17:08:44.246Z,50.910748
2022-08-09T17:08:44.724Z,50.910690
2022-08-09T17:09:46.113Z,50.910683
2022-08-09T17:10:10.539Z,50.910671
2022-08-09T17:11:09.537Z,50.910728
2022-08-09T17:12:09.521Z,50.910706
2022-08-09T17:13:10.699Z,50.910706
2022-08-09T17:14:16.252Z,50.910690
2022-08-09T17:15:30.571Z,50.910679
2022-08-09T17:16:10.480Z,50.910690
2022-08-09T17:17:23.684Z,50.910698
2022-08-09T17:18:10.721Z,50.910667
2022-08-09T17:19:10.638Z,50.910625
2022-08-09T17:20:32.341Z,50.910686
2022-08-09T17:21:10.437Z,50.910683
2022-08-09T17:22:09.426Z,50.910706
2022-08-09T17:23:10.461Z,50.910694
2022-08-09T17:24:27.606Z,50.910770
2022-08-09T17:25:11.531Z,50.910740
2022-08-09T17:26:09.403Z,50.910744
2022-08-09T17:27:15.453Z,50.910755
2022-08-09T17:28:10.374Z,50.910748
2022-08-09T17:29:11.607Z,50.910717
2022-08-09T17:30:14.156Z,50.910717
2022-08-09T17:31:09.343Z,50.910706
2022-08-09T17:32:09.339Z,50.910698
2022-08-09T17:33:23.021Z,50.910686
2022-08-09T17:34:20.242Z,50.910778
2022-08-09T17:35:11.531Z,50.910793
2022-08-09T17:36:09.299Z,50.910786
2022-08-09T17:37:19.162Z,50.910820
2022-08-09T17:38:29.165Z,50.910809
2022-08-09T17:39:10.418Z,50.910763
2022-08-09T17:40:18.122Z,50.910877
2022-08-09T17:41:10.252Z,50.910889
2022-08-09T17:42:09.251Z,50.910915
2022-08-09T17:43:33.006Z,50.910931
2022-08-09T17:44:38.700Z,50.910885
2022-08-09T17:45:16.220Z,50.910912
2022-08-09T17:46:10.220Z,50.910919
2022-08-09T17:47:10.428Z,50.910896
2022-08-09T17:48:09.189Z,50.910927
2022-08-09T17:49:09.198Z,50.910931
2022-08-09T17:50:16.958Z,50.910931
2022-08-09T17:51:18.437Z,50.910789
2022-08-09T17:52:10.150Z,50.910736
2022-08-09T17:53:19.632Z,50.910744
2022-08-09T17:54:10.149Z,50.910736
2022-08-09T17:55:10.124Z,50.910732
2022-08-09T17:56:09.590Z,50.910759
2022-08-09T17:57:09.116Z,50.910748
2022-08-09T17:58:10.102Z,50.910870
2022-08-09T17:59:15.986Z,50.910896
2022-08-09T18:00:10.076Z,50.910900
2022-08-09T18:01:09.107Z,50.910912
2022-08-09T18:02:14.796Z,50.910866
2022-08-09T18:03:10.104Z,50.910915
2022-08-09T18:04:09.301Z,50.910751
2022-08-09T18:05:13.012Z,50.910782
2022-08-09T18:06:14.928Z,50.910721
2022-08-09T18:07:10.008Z,50.910706
2022-08-09T18:08:11.232Z,50.910660
2022-08-09T18:09:09.015Z,50.910789
2022-08-09T18:10:08.981Z,50.910725
2022-08-09T18:11:08.970Z,50.910629
2022-08-09T18:12:17.699Z,50.910858
2022-08-09T18:13:39.343Z,50.910786
2022-08-09T18:14:14.726Z,50.910694
2022-08-09T18:15:12.007Z,50.910561
2022-08-09T18:16:09.364Z,50.910671
2022-08-09T18:17:08.910Z,50.910576
2022-08-09T18:18:08.928Z,50.910637
2022-08-09T18:20:55.557Z,50.910519
2022-08-09T18:20:56.287Z,50.910515
2022-08-09T18:21:23.100Z,50.910633
2022-08-09T18:22:16.669Z,50.910458
2022-08-09T18:24:11.239Z,50.910461
2022-08-09T18:24:14.207Z,50.910698
2022-08-09T18:25:08.903Z,50.910633
2022-08-09T18:26:08.829Z,50.910671
2022-08-09T18:27:08.824Z,50.910690
2022-08-09T18:28:21.462Z,50.910721
2022-08-09T18:30:38.594Z,50.910625
2022-08-09T18:30:41.446Z,50.910576
2022-08-09T18:31:09.780Z,50.910706
2022-08-09T18:32:08.775Z,50.910667
2022-08-09T18:33:13.508Z,50.910648
2022-08-09T18:34:08.778Z,50.910645
2022-08-09T18:35:08.746Z,50.910648
2022-08-09T18:36:08.736Z,50.910625
2022-08-09T18:37:10.077Z,50.910816
2022-08-09T18:38:08.782Z,50.911060
2022-08-09T18:39:15.933Z,50.910946
2022-08-09T18:40:09.764Z,50.910694
2022-08-09T18:41:08.683Z,50.910805
2022-08-09T18:42:08.838Z,50.910702
2022-08-09T18:43:08.677Z,50.910603
2022-08-09T18:44:13.276Z,50.910583
2022-08-09T18:45:09.648Z,50.910618
2022-08-09T18:46:50.004Z,50.910686
2022-08-09T18:47:15.278Z,50.910782
2022-08-09T18:48:09.624Z,50.910709
2022-08-09T18:49:08.626Z,50.910706
2022-08-09T18:50:09.138Z,50.910728
2022-08-09T18:51:08.629Z,50.910721
2022-08-09T18:52:08.586Z,50.910706
2022-08-09T18:53:13.346Z,50.910660
2022-08-09T18:54:18.023Z,50.910660
2022-08-09T18:55:13.920Z,50.910671
2022-08-09T18:56:08.547Z,50.910694
2022-08-09T18:57:08.536Z,50.910622
2022-08-09T18:58:08.527Z,50.910728
2022-08-09T18:59:08.516Z,50.910736
2022-08-09T19:00:08.541Z,50.910664
2022-08-09T19:01:08.490Z,50.910709
2022-08-09T19:02:08.552Z,50.910713
2022-08-09T19:03:08.480Z,50.910751
2022-08-09T19:04:08.681Z,50.910702
2022-08-09T19:05:19.946Z,50.910694
2022-08-09T19:06:14.545Z,50.910683
2022-08-09T19:07:09.450Z,50.910686
2022-08-09T19:08:10.786Z,50.910652
2022-08-09T19:09:13.477Z,50.910671
2022-08-09T19:10:16.797Z,50.910645
2022-08-09T19:11:09.417Z,50.910603
2022-08-09T19:12:08.401Z,50.910660
2022-08-09T19:13:19.771Z,50.910645
2022-08-09T19:14:09.379Z,50.910664
2022-08-09T19:15:08.374Z,50.910664
2022-08-09T19:16:09.219Z,50.910648
2022-08-09T19:17:08.635Z,50.910580
2022-08-09T19:18:17.173Z,50.910587
2022-08-09T19:19:21.297Z,50.910694
2022-08-09T19:20:09.329Z,50.910755
2022-08-09T19:21:09.212Z,50.910759
2022-08-09T19:22:08.317Z,50.910744
2022-08-09T19:23:08.296Z,50.910721
2022-08-09T19:24:32.712Z,50.910744
2022-08-09T19:25:41.743Z,50.910683
2022-08-09T19:26:09.260Z,50.910702
2022-08-09T19:27:08.270Z,50.910694
2022-08-09T19:28:08.246Z,50.910656
2022-08-09T19:29:15.064Z,50.910679
2022-08-09T19:30:22.514Z,50.910645
2022-08-09T19:31:09.218Z,50.910637
2022-08-09T19:32:08.209Z,50.910706
2022-08-09T19:33:14.332Z,50.910664
2022-08-09T19:34:09.203Z,50.910660
2022-08-09T19:35:09.242Z,50.910698
2022-08-09T19:36:13.347Z,50.910755
2022-08-09T19:37:08.166Z,50.910835
2022-08-09T19:38:08.153Z,50.910831
2022-08-09T19:39:08.384Z,50.910851
2022-08-09T19:40:08.178Z,50.910866
2022-08-09T19:41:08.122Z,50.910870
2022-08-09T19:42:08.115Z,50.910824
2022-08-09T19:43:16.348Z,50.910793
2022-08-09T19:44:09.102Z,50.910767
2022-08-09T19:45:08.106Z,50.910801
2022-08-09T19:46:08.070Z,50.910816
2022-08-09T19:47:08.062Z,50.910656
2022-08-09T19:48:10.691Z,50.910641
2022-08-09T19:50:08.599Z,50.910656
2022-08-09T19:50:50.773Z,50.910645
2022-08-09T19:51:09.025Z,50.910641
2022-08-09T19:52:08.019Z,50.910690
2022-08-09T19:53:08.009Z,50.910675
2022-08-09T19:54:08.055Z,50.910648
2022-08-09T19:55:08.029Z,50.910633
2022-08-09T19:56:08.034Z,50.910667
2022-08-09T19:57:09.348Z,50.910660
2022-08-09T19:58:15.940Z,50.910675
2022-08-09T19:59:27.798Z,50.910675
2022-08-09T20:00:08.953Z,50.910721
2022-08-09T20:01:08.294Z,50.910728
2022-08-09T20:02:15.819Z,50.910690
2022-08-09T20:04:18.263Z,50.910725
2022-08-09T20:04:26.255Z,50.910660
2022-08-09T20:05:09.942Z,50.910709
2022-08-09T20:06:22.476Z,50.910660
2022-08-09T20:07:08.874Z,50.910618
2022-08-09T20:08:07.862Z,50.910549
2022-08-09T20:09:07.854Z,50.910660
2022-08-09T20:10:17.887Z,50.910641
2022-08-09T20:11:08.850Z,50.910645
2022-08-09T20:12:07.821Z,50.910698
2022-08-09T20:13:08.811Z,50.910679
2022-08-09T20:14:07.802Z,50.910706
2022-08-09T20:16:31.744Z,50.910728
2022-08-09T20:16:36.579Z,50.910667
2022-08-09T20:17:08.772Z,50.910664
2022-08-09T20:18:08.341Z,50.910652
2022-08-09T20:19:48.901Z,50.910648
2022-08-09T20:20:08.744Z,50.910675
2022-08-09T20:21:08.469Z,50.910641
2022-08-09T20:22:10.002Z,50.910641
2022-08-09T20:23:07.768Z,50.910652
2022-08-09T20:24:07.701Z,50.910732
2022-08-09T20:25:07.697Z,50.910694
2022-08-09T20:26:07.700Z,50.910660
2022-08-09T20:27:08.346Z,50.910690
2022-08-09T20:28:07.660Z,50.910698
2022-08-09T20:29:18.783Z,50.910763
2022-08-09T20:30:08.679Z,50.910721
2022-08-09T20:31:09.247Z,50.910748
2022-08-09T20:32:29.233Z,50.910664
2022-08-09T20:33:08.617Z,50.910725
2022-08-09T20:34:07.604Z,50.910732
2022-08-09T20:35:07.610Z,50.910801
2022-08-09T20:36:07.579Z,50.910713
2022-08-09T20:37:07.575Z,50.910694
2022-08-09T20:38:20.752Z,50.910652
2022-08-09T20:40:13.334Z,50.910660
2022-08-09T20:40:16.033Z,50.910748
2022-08-09T20:41:08.598Z,50.910736
2022-08-09T20:42:07.528Z,50.910637
2022-08-09T20:43:17.978Z,50.910614
2022-08-09T20:44:10.587Z,50.910572
2022-08-09T20:46:00.947Z,50.910599
2022-08-09T20:46:33.120Z,50.910583
2022-08-09T20:47:08.477Z,50.910599
2022-08-09T20:48:08.468Z,50.910568
2022-08-09T20:49:07.590Z,50.910484
2022-08-09T20:50:07.463Z,50.910645
2022-08-09T20:51:07.471Z,50.910721
2022-08-09T20:52:08.430Z,50.910744
2022-08-09T20:53:18.735Z,50.910759
2022-08-09T20:54:08.412Z,50.910778
2022-08-09T20:55:07.414Z,50.910820
2022-08-09T20:56:08.840Z,50.910812
2022-08-09T20:57:07.646Z,50.910751
2022-08-09T20:58:19.795Z,50.910782
2022-08-09T20:59:08.373Z,50.910797
2022-08-09T21:00:31.080Z,50.910748
2022-08-09T21:01:32.615Z,50.910763
2022-08-09T21:02:08.407Z,50.910751
2022-08-09T21:03:07.427Z,50.910812
2022-08-09T21:04:08.205Z,50.910774
2022-08-09T21:05:56.818Z,50.910870
2022-08-09T21:06:08.302Z,50.910976
2022-08-09T21:07:11.450Z,50.910892
2022-08-09T21:08:08.296Z,50.910854
2022-08-09T21:09:13.433Z,50.910713
2022-08-09T21:10:08.282Z,50.910782
2022-08-09T21:13:07.233Z,50.910828
2022-08-09T21:14:08.230Z,50.910805
2022-08-09T21:15:12.744Z,50.910805
2022-08-09T21:16:19.072Z,50.910835
2022-08-09T21:18:21.965Z,50.910793
2022-08-09T21:18:29.567Z,50.910736
2022-08-09T21:20:19.432Z,50.910778
2022-08-09T21:20:22.443Z,50.910889
2022-08-09T21:21:17.484Z,50.910988
2022-08-09T21:22:23.096Z,50.911091
2022-08-09T21:23:09.143Z,50.911011
2022-08-09T21:24:08.121Z,50.910881
2022-08-09T21:25:07.342Z,50.910797
2022-08-09T21:26:07.101Z,50.910851
2022-08-09T21:27:50.314Z,50.910732
2022-08-09T21:28:12.023Z,50.910789
2022-08-09T21:29:11.628Z,50.910824
2022-08-09T21:30:08.079Z,50.910831
2022-08-09T21:31:17.152Z,50.910816
2022-08-09T21:32:08.050Z,50.910786
2022-08-09T21:33:08.046Z,50.910763
2022-08-09T21:34:07.044Z,50.910812
2022-08-09T21:35:07.035Z,50.910770
2022-08-09T21:36:07.007Z,50.910809
2022-08-09T21:37:18.162Z,50.910793
2022-08-09T21:38:07.992Z,50.910786
2022-08-09T21:39:07.016Z,50.910763
2022-08-09T21:40:10.707Z,50.910805
2022-08-09T21:41:08.247Z,50.910858
2022-08-09T21:42:10.412Z,50.910892
2022-08-09T21:43:06.955Z,50.910995
2022-08-09T21:44:06.926Z,50.910839
2022-08-09T21:45:06.923Z,50.910801
2022-08-09T21:46:06.935Z,50.910873
2022-08-09T21:47:07.974Z,50.910789
2022-08-09T21:48:06.892Z,50.910797
2022-08-09T21:49:07.397Z,50.910809
2022-08-09T21:50:06.871Z,50.910820
2022-08-09T21:51:14.084Z,50.910763
2022-08-09T21:52:07.853Z,50.910774
2022-08-09T21:53:15.599Z,50.910782
2022-08-09T21:54:07.832Z,50.910812
2022-08-09T21:55:06.823Z,50.910812
2022-08-09T21:56:06.819Z,50.910755
2022-08-09T21:57:25.226Z,50.910740
2022-08-09T21:58:07.791Z,50.910774
2022-08-09T21:59:06.789Z,50.910778
2022-08-09T22:00:06.805Z,50.910793
2022-08-09T22:01:11.649Z,50.910858
2022-08-09T22:02:07.792Z,50.910854
2022-08-09T22:03:06.907Z,50.910908
2022-08-09T22:04:06.733Z,50.910839
2022-08-09T22:05:16.933Z,50.910851
2022-08-09T22:06:07.732Z,50.910904
2022-08-09T22:07:06.711Z,50.910908
2022-08-09T22:08:06.699Z,50.910873
2022-08-09T22:09:07.687Z,50.910915
2022-08-09T22:10:06.741Z,50.910919
2022-08-09T22:12:05.921Z,50.910889
2022-08-09T22:12:18.735Z,50.910900
2022-08-09T22:13:11.405Z,50.910931
2022-08-09T22:14:10.859Z,50.910885
2022-08-09T22:15:06.631Z,50.910900
2022-08-09T22:16:07.655Z,50.910885
2022-08-09T22:17:06.783Z,50.910854
2022-08-09T22:18:12.051Z,50.910870
2022-08-09T22:19:53.448Z,50.910866
2022-08-09T22:20:07.582Z,50.910858
2022-08-09T22:21:09.578Z,50.910847
2022-08-09T22:22:07.560Z,50.910866
2022-08-09T22:23:10.700Z,50.910889
2022-08-09T22:24:06.540Z,50.910973
2022-08-09T22:26:06.263Z,50.910942
2022-08-09T22:26:23.373Z,50.910847
2022-08-09T22:27:07.516Z,50.910858
2022-08-09T22:28:07.399Z,50.910854
2022-08-09T22:29:07.510Z,50.910873
2022-08-09T22:30:06.486Z,50.910835
2022-08-09T22:31:06.492Z,50.910831
2022-08-09T22:32:06.465Z,50.910843
2022-08-09T22:33:09.477Z,50.910824
2022-08-09T22:34:09.874Z,50.910809
2022-08-09T22:36:01.532Z,50.910801
2022-08-09T22:36:07.440Z,50.910847
2022-08-09T22:37:06.430Z,50.910892
2022-08-09T22:38:07.568Z,50.910896
2022-08-09T22:39:06.401Z,50.910885
2022-08-09T22:40:06.429Z,50.910847
2022-08-09T22:41:06.397Z,50.910797
2022-08-09T22:42:21.561Z,50.910812
2022-08-09T22:43:16.158Z,50.910786
2022-08-09T22:44:07.349Z,50.910725
2022-08-09T22:48:10.308Z,50.910770
2022-08-09T22:48:12.382Z,50.910767
2022-08-09T22:48:17.010Z,50.910809
2022-08-09T22:48:19.638Z,50.910812
2022-08-09T22:49:10.247Z,50.910793
2022-08-09T22:50:06.288Z,50.910793
2022-08-09T22:51:10.390Z,50.910816
2022-08-09T22:52:06.269Z,50.910824
2022-08-09T22:53:06.269Z,50.910793
2022-08-09T22:54:08.258Z,50.910793
2022-08-09T22:55:06.244Z,50.910767
2022-08-09T22:56:31.354Z,50.910732
2022-08-09T22:57:07.233Z,50.910686
2022-08-09T22:58:06.215Z,50.910736
2022-08-09T22:59:57.300Z,50.910694
2022-08-09T23:00:07.190Z,50.910671
2022-08-09T23:01:06.340Z,50.910675